sensor_id;sensor_type;location;lat;lon;timestamp;pressure;altitude;pressure_sealevel;temperature;humidity
67377;BME280;54261;46.086;6.588;2023-04-24T00:03:30;91955.06;;;7.89;49.62
67377;BME280;54261;46.086;6.588;2023-04-24T00:08:32;91952.34;;;8.60;49.41
67377;BME280;54261;46.086;6.588;2023-04-24T00:13:34;91956.59;;;9.26;47.86
67377;BME280;54261;46.086;6.588;2023-04-24T00:18:37;91952.13;;;8.91;47.78
67377;BME280;54261;46.086;6.588;2023-04-24T00:23:39;91949.88;;;8.19;48.41
67377;BME280;54261;46.086;6.588;2023-04-24T00:28:41;91961.88;;;8.96;46.92
67377;BME280;54261;46.086;6.588;2023-04-24T00:33:43;91967.19;;;9.14;46.54
67377;BME280;54261;46.086;6.588;2023-04-24T00:38:44;91967.44;;;8.82;47.20
67377;BME280;54261;46.086;6.588;2023-04-24T00:43:47;91973.47;;;9.87;45.21
67377;BME280;54261;46.086;6.588;2023-04-24T00:48:50;91939.91;;;9.59;45.47
67377;BME280;54261;46.086;6.588;2023-04-24T00:53:52;91957.69;;;9.64;44.70
67377;BME280;54261;46.086;6.588;2023-04-24T00:58:54;91945.28;;;9.29;45.90
67377;BME280;54261;46.086;6.588;2023-04-24T01:03:57;91950.72;;;9.72;44.96
67377;BME280;54261;46.086;6.588;2023-04-24T01:08:59;91951.19;;;9.95;44.88
67377;BME280;54261;46.086;6.588;2023-04-24T01:14:04;91945.31;;;9.12;46.09
67377;BME280;54261;46.086;6.588;2023-04-24T01:19:06;91952.84;;;9.57;45.91
67377;BME280;54261;46.086;6.588;2023-04-24T01:24:10;91956.78;;;7.85;48.21
67377;BME280;54261;46.086;6.588;2023-04-24T01:29:12;91949.06;;;8.45;47.88
67377;BME280;54261;46.086;6.588;2023-04-24T01:34:17;91963.00;;;9.43;47.13
67377;BME280;54261;46.086;6.588;2023-04-24T01:39:19;91944.09;;;9.00;47.05
67377;BME280;54261;46.086;6.588;2023-04-24T01:44:23;91902.19;;;6.61;51.14
67377;BME280;54261;46.086;6.588;2023-04-24T01:49:25;91927.19;;;6.43;52.62
67377;BME280;54261;46.086;6.588;2023-04-24T01:54:27;91931.31;;;4.07;58.60
67377;BME280;54261;46.086;6.588;2023-04-24T01:59:31;91946.47;;;4.40;59.56
67377;BME280;54261;46.086;6.588;2023-04-24T02:04:34;91962.75;;;7.24;53.58
67377;BME280;54261;46.086;6.588;2023-04-24T02:09:36;91962.56;;;7.78;50.59
67377;BME280;54261;46.086;6.588;2023-04-24T02:14:39;91978.47;;;8.81;48.98
67377;BME280;54261;46.086;6.588;2023-04-24T02:19:42;91991.56;;;7.45;52.34
67377;BME280;54261;46.086;6.588;2023-04-24T02:24:44;91984.88;;;5.23;57.62
67377;BME280;54261;46.086;6.588;2023-04-24T02:29:49;91964.69;;;6.23;58.80
67377;BME280;54261;46.086;6.588;2023-04-24T02:34:51;91970.84;;;7.01;54.73
67377;BME280;54261;46.086;6.588;2023-04-24T02:39:53;91977.25;;;8.52;52.14
67377;BME280;54261;46.086;6.588;2023-04-24T02:44:55;91972.69;;;6.23;53.75
67377;BME280;54261;46.086;6.588;2023-04-24T02:49:57;91978.00;;;7.90;51.04
67377;BME280;54261;46.086;6.588;2023-04-24T02:54:59;91982.13;;;8.32;48.40
67377;BME280;54261;46.086;6.588;2023-04-24T03:00:01;91973.94;;;8.46;48.85
67377;BME280;54261;46.086;6.588;2023-04-24T03:05:04;91977.66;;;8.80;47.71
67377;BME280;54261;46.086;6.588;2023-04-24T03:10:07;91983.44;;;9.56;46.38
67377;BME280;54261;46.086;6.588;2023-04-24T03:15:09;91977.06;;;9.31;46.78
67377;BME280;54261;46.086;6.588;2023-04-24T03:20:12;91975.72;;;9.16;46.10
67377;BME280;54261;46.086;6.588;2023-04-24T03:25:14;91977.41;;;8.11;47.47
67377;BME280;54261;46.086;6.588;2023-04-24T03:30:16;91956.34;;;9.19;46.70
67377;BME280;54261;46.086;6.588;2023-04-24T03:35:27;91977.78;;;9.01;45.84
67377;BME280;54261;46.086;6.588;2023-04-24T03:40:30;91990.91;;;9.72;45.49
67377;BME280;54261;46.086;6.588;2023-04-24T03:45:33;91988.78;;;9.86;45.14
67377;BME280;54261;46.086;6.588;2023-04-24T03:50:35;91975.25;;;9.53;44.54
67377;BME280;54261;46.086;6.588;2023-04-24T03:55:39;91978.75;;;9.44;45.62
67377;BME280;54261;46.086;6.588;2023-04-24T04:00:41;91962.38;;;9.46;45.31
67377;BME280;54261;46.086;6.588;2023-04-24T04:06:05;91997.84;;;8.16;47.44
67377;BME280;54261;46.086;6.588;2023-04-24T04:11:07;91992.00;;;8.67;47.18
67377;BME280;54261;46.086;6.588;2023-04-24T04:16:09;91978.66;;;8.58;46.57
67377;BME280;54261;46.086;6.588;2023-04-24T04:21:12;92008.53;;;8.51;46.25
67377;BME280;54261;46.086;6.588;2023-04-24T04:26:14;92011.78;;;7.86;48.92
67377;BME280;54261;46.086;6.588;2023-04-24T04:31:29;92015.59;;;9.00;46.49
67377;BME280;54261;46.086;6.588;2023-04-24T04:36:35;92014.66;;;8.69;46.62
67377;BME280;54261;46.086;6.588;2023-04-24T04:41:52;92011.22;;;8.07;48.13
67377;BME280;54261;46.086;6.588;2023-04-24T04:46:57;92010.13;;;8.26;47.20
67377;BME280;54261;46.086;6.588;2023-04-24T04:52:03;92005.88;;;7.17;49.49
67377;BME280;54261;46.086;6.588;2023-04-24T04:57:06;92014.41;;;7.69;48.54
67377;BME280;54261;46.086;6.588;2023-04-24T05:02:09;92029.53;;;7.33;48.40
67377;BME280;54261;46.086;6.588;2023-04-24T05:07:11;92021.38;;;7.06;50.20
67377;BME280;54261;46.086;6.588;2023-04-24T05:12:18;92019.16;;;6.54;50.88
67377;BME280;54261;46.086;6.588;2023-04-24T05:17:25;92012.59;;;5.50;53.36
67377;BME280;54261;46.086;6.588;2023-04-24T05:22:29;92026.59;;;6.80;50.33
67377;BME280;54261;46.086;6.588;2023-04-24T05:27:31;92033.88;;;7.29;49.05
67377;BME280;54261;46.086;6.588;2023-04-24T05:32:34;92042.44;;;7.08;49.48
67377;BME280;54261;46.086;6.588;2023-04-24T05:37:37;92054.97;;;8.55;48.24
67377;BME280;54261;46.086;6.588;2023-04-24T05:42:39;92063.59;;;8.26;47.99
67377;BME280;54261;46.086;6.588;2023-04-24T05:47:42;92066.28;;;8.70;46.86
67377;BME280;54261;46.086;6.588;2023-04-24T05:52:45;92063.88;;;8.15;48.12
67377;BME280;54261;46.086;6.588;2023-04-24T05:57:58;92076.16;;;7.67;48.60
67377;BME280;54261;46.086;6.588;2023-04-24T06:03:01;92080.78;;;8.69;47.58
67377;BME280;54261;46.086;6.588;2023-04-24T06:08:05;92081.97;;;7.37;50.90
67377;BME280;54261;46.086;6.588;2023-04-24T06:13:11;92082.09;;;7.64;49.22
67377;BME280;54261;46.086;6.588;2023-04-24T06:18:19;92090.81;;;7.87;48.00
67377;BME280;54261;46.086;6.588;2023-04-24T06:23:22;92097.31;;;6.77;51.36
67377;BME280;54261;46.086;6.588;2023-04-24T06:28:24;92100.44;;;8.64;48.88
67377;BME280;54261;46.086;6.588;2023-04-24T06:33:27;92119.16;;;8.55;47.77
67377;BME280;54261;46.086;6.588;2023-04-24T06:38:29;92124.38;;;9.04;47.41
67377;BME280;54261;46.086;6.588;2023-04-24T06:43:31;92129.56;;;9.10;47.37
67377;BME280;54261;46.086;6.588;2023-04-24T06:48:33;92132.81;;;9.42;46.02
67377;BME280;54261;46.086;6.588;2023-04-24T06:53:35;92134.06;;;7.58;48.13
67377;BME280;54261;46.086;6.588;2023-04-24T06:58:37;92122.16;;;9.15;47.35
67377;BME280;54261;46.086;6.588;2023-04-24T07:03:39;92135.75;;;9.67;45.77
67377;BME280;54261;46.086;6.588;2023-04-24T07:08:41;92154.78;;;7.52;49.81
67377;BME280;54261;46.086;6.588;2023-04-24T07:13:43;92158.19;;;7.21;50.91
67377;BME280;54261;46.086;6.588;2023-04-24T07:18:45;92166.09;;;9.05;48.64
67377;BME280;54261;46.086;6.588;2023-04-24T07:23:47;92169.56;;;9.24;47.19
67377;BME280;54261;46.086;6.588;2023-04-24T07:28:49;92163.16;;;9.81;46.13
67377;BME280;54261;46.086;6.588;2023-04-24T07:33:51;92166.06;;;9.49;47.50
67377;BME280;54261;46.086;6.588;2023-04-24T07:38:52;92183.47;;;3.69;64.64
67377;BME280;54261;46.086;6.588;2023-04-24T07:43:55;92182.78;;;7.32;56.83
67377;BME280;54261;46.086;6.588;2023-04-24T07:48:57;92185.47;;;4.50;61.79
67377;BME280;54261;46.086;6.588;2023-04-24T07:54:13;92188.22;;;7.27;53.70
67377;BME280;54261;46.086;6.588;2023-04-24T07:59:15;92221.09;;;2.11;71.10
67377;BME280;54261;46.086;6.588;2023-04-24T08:04:17;92218.56;;;4.82;61.91
67377;BME280;54261;46.086;6.588;2023-04-24T08:09:19;92221.16;;;7.22;56.02
67377;BME280;54261;46.086;6.588;2023-04-24T08:14:21;92244.22;;;8.49;53.09
67377;BME280;54261;46.086;6.588;2023-04-24T08:19:23;92137.22;;;7.28;50.94
67377;BME280;54261;46.086;6.588;2023-04-24T08:24:25;92225.16;;;6.74;52.10
67377;BME280;54261;46.086;6.588;2023-04-24T08:29:27;92220.75;;;5.33;57.09
67377;BME280;54261;46.086;6.588;2023-04-24T08:34:29;92231.78;;;5.59;59.10
67377;BME280;54261;46.086;6.588;2023-04-24T08:39:30;92232.47;;;5.12;59.36
67377;BME280;54261;46.086;6.588;2023-04-24T08:44:32;92237.03;;;4.74;61.44
67377;BME280;54261;46.086;6.588;2023-04-24T08:49:36;92251.94;;;4.02;62.26
67377;BME280;54261;46.086;6.588;2023-04-24T08:54:39;92255.88;;;1.84;64.82
67377;BME280;54261;46.086;6.588;2023-04-24T08:59:41;92260.91;;;2.67;63.52
67377;BME280;54261;46.086;6.588;2023-04-24T09:04:45;92243.28;;;5.02;61.43
67377;BME280;54261;46.086;6.588;2023-04-24T09:09:50;92259.03;;;6.31;57.36
67377;BME280;54261;46.086;6.588;2023-04-24T09:14:53;92259.50;;;6.33;56.28
67377;BME280;54261;46.086;6.588;2023-04-24T09:19:55;92267.53;;;6.75;57.21
67377;BME280;54261;46.086;6.588;2023-04-24T09:25:07;92267.97;;;7.42;52.71
67377;BME280;54261;46.086;6.588;2023-04-24T09:30:11;92264.06;;;6.61;52.24
67377;BME280;54261;46.086;6.588;2023-04-24T09:35:14;92258.13;;;4.84;55.22
67377;BME280;54261;46.086;6.588;2023-04-24T09:40:20;92258.22;;;4.79;54.86
67377;BME280;54261;46.086;6.588;2023-04-24T09:45:43;92261.28;;;5.63;51.33
67377;BME280;54261;46.086;6.588;2023-04-24T09:50:48;92247.56;;;4.60;56.05
67377;BME280;54261;46.086;6.588;2023-04-24T09:55:53;92265.13;;;4.12;55.70
67377;BME280;54261;46.086;6.588;2023-04-24T10:00:56;92255.25;;;5.90;50.38
67377;BME280;54261;46.086;6.588;2023-04-24T10:06:02;92249.53;;;6.39;52.12
67377;BME280;54261;46.086;6.588;2023-04-24T10:11:10;92255.88;;;5.68;49.11
67377;BME280;54261;46.086;6.588;2023-04-24T10:16:13;92250.59;;;7.31;45.41
67377;BME280;54261;46.086;6.588;2023-04-24T10:21:16;92249.66;;;5.39;50.42
67377;BME280;54261;46.086;6.588;2023-04-24T10:26:19;92244.78;;;5.94;48.19
67377;BME280;54261;46.086;6.588;2023-04-24T10:31:21;92252.09;;;4.59;51.45
67377;BME280;54261;46.086;6.588;2023-04-24T10:36:24;92246.13;;;5.25;48.93
67377;BME280;54261;46.086;6.588;2023-04-24T10:41:30;92240.22;;;5.28;47.38
67377;BME280;54261;46.086;6.588;2023-04-24T10:46:32;92245.09;;;6.34;49.91
67377;BME280;54261;46.086;6.588;2023-04-24T10:51:51;92243.22;;;6.49;48.92
67377;BME280;54261;46.086;6.588;2023-04-24T11:02:36;92232.53;;;6.91;47.94
67377;BME280;54261;46.086;6.588;2023-04-24T11:08:11;92229.88;;;5.93;48.70
67377;BME280;54261;46.086;6.588;2023-04-24T11:13:21;92219.28;;;5.07;49.57
67377;BME280;54261;46.086;6.588;2023-04-24T11:18:23;92214.16;;;5.63;48.36
67377;BME280;54261;46.086;6.588;2023-04-24T11:23:26;92230.78;;;7.46;47.01
67377;BME280;54261;46.086;6.588;2023-04-24T11:28:28;92215.50;;;6.50;43.09
67377;BME280;54261;46.086;6.588;2023-04-24T11:33:31;92224.16;;;6.00;45.46
67377;BME280;54261;46.086;6.588;2023-04-24T11:38:33;92226.16;;;7.15;47.07
67377;BME280;54261;46.086;6.588;2023-04-24T11:43:35;92212.56;;;6.88;45.70
67377;BME280;54261;46.086;6.588;2023-04-24T11:48:38;92216.94;;;5.20;47.22
67377;BME280;54261;46.086;6.588;2023-04-24T11:53:41;92219.16;;;6.26;47.77
67377;BME280;54261;46.086;6.588;2023-04-24T11:58:45;92188.28;;;8.97;42.33
67377;BME280;54261;46.086;6.588;2023-04-24T12:03:48;92222.97;;;7.81;43.64
67377;BME280;54261;46.086;6.588;2023-04-24T12:08:52;92220.22;;;7.41;44.46
67377;BME280;54261;46.086;6.588;2023-04-24T12:13:54;92212.50;;;6.51;46.10
67377;BME280;54261;46.086;6.588;2023-04-24T12:18:57;92211.78;;;6.88;42.52
67377;BME280;54261;46.086;6.588;2023-04-24T12:24:00;92179.72;;;5.53;47.65
67377;BME280;54261;46.086;6.588;2023-04-24T12:29:03;92187.63;;;7.84;41.43
67377;BME280;54261;46.086;6.588;2023-04-24T12:34:19;92213.91;;;7.14;41.08
67377;BME280;54261;46.086;6.588;2023-04-24T12:39:22;92212.09;;;5.88;43.83
67377;BME280;54261;46.086;6.588;2023-04-24T12:44:33;92205.34;;;8.03;40.83
67377;BME280;54261;46.086;6.588;2023-04-24T12:49:36;92207.34;;;9.57;40.28
67377;BME280;54261;46.086;6.588;2023-04-24T12:54:38;92210.88;;;8.56;40.07
67377;BME280;54261;46.086;6.588;2023-04-24T12:59:40;92200.28;;;7.70;42.14
67377;BME280;54261;46.086;6.588;2023-04-24T13:04:42;92201.81;;;7.62;41.53
67377;BME280;54261;46.086;6.588;2023-04-24T13:09:44;92196.91;;;8.18;40.81
67377;BME280;54261;46.086;6.588;2023-04-24T13:14:46;92164.94;;;9.68;36.03
67377;BME280;54261;46.086;6.588;2023-04-24T13:19:49;92189.25;;;9.28;37.17
67377;BME280;54261;46.086;6.588;2023-04-24T13:24:51;92186.06;;;7.83;39.35
67377;BME280;54261;46.086;6.588;2023-04-24T13:29:53;92177.91;;;10.05;36.78
67377;BME280;54261;46.086;6.588;2023-04-24T13:34:56;92173.16;;;11.22;33.57
67377;BME280;54261;46.086;6.588;2023-04-24T13:39:58;92132.41;;;9.87;33.99
67377;BME280;54261;46.086;6.588;2023-04-24T13:45:00;92144.81;;;8.91;37.87
67377;BME280;54261;46.086;6.588;2023-04-24T13:50:14;92165.72;;;10.76;34.17
67377;BME280;54261;46.086;6.588;2023-04-24T13:55:17;92149.00;;;8.40;35.82
67377;BME280;54261;46.086;6.588;2023-04-24T14:00:19;92141.56;;;7.47;35.11
67377;BME280;54261;46.086;6.588;2023-04-24T14:05:21;92109.09;;;8.70;37.76
67377;BME280;54261;46.086;6.588;2023-04-24T14:10:23;92137.56;;;8.57;35.37
67377;BME280;54261;46.086;6.588;2023-04-24T14:15:25;92131.69;;;9.60;33.84
67377;BME280;54261;46.086;6.588;2023-04-24T14:20:27;92129.66;;;10.35;32.11
67377;BME280;54261;46.086;6.588;2023-04-24T14:25:30;92104.88;;;13.51;29.95
67377;BME280;54261;46.086;6.588;2023-04-24T14:30:32;92118.81;;;9.92;32.15
67377;BME280;54261;46.086;6.588;2023-04-24T14:35:35;92111.41;;;8.27;35.07
67377;BME280;54261;46.086;6.588;2023-04-24T14:40:37;92103.72;;;9.79;33.55
67377;BME280;54261;46.086;6.588;2023-04-24T14:45:42;92085.78;;;10.82;32.06
67377;BME280;54261;46.086;6.588;2023-04-24T14:50:44;92098.81;;;10.93;31.05
67377;BME280;54261;46.086;6.588;2023-04-24T14:55:47;92102.50;;;11.09;30.16
67377;BME280;54261;46.086;6.588;2023-04-24T15:00:48;92100.22;;;11.91;30.54
67377;BME280;54261;46.086;6.588;2023-04-24T15:05:56;92095.84;;;11.28;30.41
67377;BME280;54261;46.086;6.588;2023-04-24T15:10:58;92062.34;;;12.99;28.66
67377;BME280;54261;46.086;6.588;2023-04-24T15:16:00;92089.88;;;10.37;30.30
67377;BME280;54261;46.086;6.588;2023-04-24T15:21:02;92104.72;;;6.80;35.53
67377;BME280;54261;46.086;6.588;2023-04-24T15:26:04;92084.22;;;9.04;35.21
67377;BME280;54261;46.086;6.588;2023-04-24T15:31:06;92096.25;;;9.94;32.38
67377;BME280;54261;46.086;6.588;2023-04-24T15:36:08;92113.53;;;10.14;31.70
67377;BME280;54261;46.086;6.588;2023-04-24T15:41:11;92086.13;;;7.52;34.19
67377;BME280;54261;46.086;6.588;2023-04-24T15:46:13;92106.59;;;9.74;33.20
67377;BME280;54261;46.086;6.588;2023-04-24T15:51:15;92100.41;;;9.26;32.09
67377;BME280;54261;46.086;6.588;2023-04-24T15:56:17;92101.00;;;9.88;30.57
67377;BME280;54261;46.086;6.588;2023-04-24T16:01:20;92098.00;;;10.50;31.80
67377;BME280;54261;46.086;6.588;2023-04-24T16:06:22;92099.03;;;8.75;33.46
67377;BME280;54261;46.086;6.588;2023-04-24T16:11:24;92113.50;;;9.18;33.78
67377;BME280;54261;46.086;6.588;2023-04-24T16:16:26;92117.25;;;8.38;32.90
67377;BME280;54261;46.086;6.588;2023-04-24T16:21:28;92107.78;;;9.38;32.56
67377;BME280;54261;46.086;6.588;2023-04-24T16:26:30;92096.63;;;9.35;33.86
67377;BME280;54261;46.086;6.588;2023-04-24T16:31:32;92109.84;;;11.00;31.41
67377;BME280;54261;46.086;6.588;2023-04-24T16:36:35;92106.09;;;9.24;33.79
67377;BME280;54261;46.086;6.588;2023-04-24T16:41:37;92101.53;;;9.25;33.65
67377;BME280;54261;46.086;6.588;2023-04-24T16:46:39;92102.94;;;8.52;33.93
67377;BME280;54261;46.086;6.588;2023-04-24T16:51:41;92120.25;;;9.81;33.29
67377;BME280;54261;46.086;6.588;2023-04-24T16:56:43;92108.69;;;10.07;31.98
67377;BME280;54261;46.086;6.588;2023-04-24T17:01:45;92105.31;;;8.79;33.16
67377;BME280;54261;46.086;6.588;2023-04-24T17:06:47;92109.09;;;8.70;34.19
67377;BME280;54261;46.086;6.588;2023-04-24T17:11:49;92074.72;;;7.61;34.82
67377;BME280;54261;46.086;6.588;2023-04-24T17:16:51;92116.63;;;8.50;33.92
67377;BME280;54261;46.086;6.588;2023-04-24T17:21:54;92103.59;;;8.66;34.06
67377;BME280;54261;46.086;6.588;2023-04-24T17:26:57;92111.38;;;7.78;36.06
67377;BME280;54261;46.086;6.588;2023-04-24T17:32:12;92092.91;;;7.99;33.98
67377;BME280;54261;46.086;6.588;2023-04-24T17:37:14;92108.56;;;10.97;32.11
67377;BME280;54261;46.086;6.588;2023-04-24T17:42:16;92120.59;;;9.05;32.59
67377;BME280;54261;46.086;6.588;2023-04-24T17:47:18;92126.22;;;9.48;33.59
67377;BME280;54261;46.086;6.588;2023-04-24T17:52:22;92124.97;;;7.04;35.19
67377;BME280;54261;46.086;6.588;2023-04-24T17:57:24;92134.56;;;8.41;33.65
67377;BME280;54261;46.086;6.588;2023-04-24T18:02:26;92115.25;;;9.05;33.60
67377;BME280;54261;46.086;6.588;2023-04-24T18:07:28;92103.25;;;9.12;32.99
67377;BME280;54261;46.086;6.588;2023-04-24T18:12:31;92127.28;;;6.74;35.85
67377;BME280;54261;46.086;6.588;2023-04-24T18:17:32;92140.59;;;9.26;34.14
67377;BME280;54261;46.086;6.588;2023-04-24T18:22:34;92116.78;;;9.89;32.27
67377;BME280;54261;46.086;6.588;2023-04-24T18:27:37;92150.06;;;10.27;31.50
67377;BME280;54261;46.086;6.588;2023-04-24T18:32:39;92162.63;;;9.40;33.27
67377;BME280;54261;46.086;6.588;2023-04-24T18:37:41;92172.31;;;7.99;34.19
67377;BME280;54261;46.086;6.588;2023-04-24T18:42:43;92185.72;;;7.85;34.95
67377;BME280;54261;46.086;6.588;2023-04-24T18:47:45;92181.66;;;9.56;33.91
67377;BME280;54261;46.086;6.588;2023-04-24T18:52:47;92193.50;;;10.81;32.18
67377;BME280;54261;46.086;6.588;2023-04-24T18:57:49;92200.88;;;10.84;32.35
67377;BME280;54261;46.086;6.588;2023-04-24T19:02:51;92185.16;;;11.92;32.07
67377;BME280;54261;46.086;6.588;2023-04-24T19:07:53;92206.34;;;10.96;31.97
67377;BME280;54261;46.086;6.588;2023-04-24T19:12:55;92206.09;;;12.45;31.14
67377;BME280;54261;46.086;6.588;2023-04-24T19:17:58;92210.13;;;12.89;30.28
67377;BME280;54261;46.086;6.588;2023-04-24T19:22:59;92220.00;;;12.97;31.13
67377;BME280;54261;46.086;6.588;2023-04-24T19:28:02;92198.25;;;12.65;30.86
67377;BME280;54261;46.086;6.588;2023-04-24T19:33:04;92216.91;;;13.36;29.50
67377;BME280;54261;46.086;6.588;2023-04-24T19:38:06;92223.34;;;13.19;29.14
67377;BME280;54261;46.086;6.588;2023-04-24T19:43:08;92224.78;;;13.28;29.04
67377;BME280;54261;46.086;6.588;2023-04-24T19:48:10;92222.25;;;13.07;29.75
67377;BME280;54261;46.086;6.588;2023-04-24T19:53:12;92224.69;;;12.25;33.58
67377;BME280;54261;46.086;6.588;2023-04-24T19:58:15;92235.72;;;13.07;31.22
67377;BME280;54261;46.086;6.588;2023-04-24T20:03:17;92234.97;;;12.11;30.74
67377;BME280;54261;46.086;6.588;2023-04-24T20:08:33;92208.03;;;10.80;35.45
67377;BME280;54261;46.086;6.588;2023-04-24T20:13:39;92217.22;;;10.70;34.97
67377;BME280;54261;46.086;6.588;2023-04-24T20:18:41;92247.25;;;11.44;33.86
67377;BME280;54261;46.086;6.588;2023-04-24T20:23:44;92254.38;;;11.83;33.81
67377;BME280;54261;46.086;6.588;2023-04-24T20:28:45;92256.06;;;11.87;31.95
67377;BME280;54261;46.086;6.588;2023-04-24T20:33:47;92255.81;;;10.00;34.58
67377;BME280;54261;46.086;6.588;2023-04-24T20:38:49;92248.09;;;10.07;35.10
67377;BME280;54261;46.086;6.588;2023-04-24T20:43:52;92221.84;;;11.76;33.62
67377;BME280;54261;46.086;6.588;2023-04-24T20:48:54;92231.78;;;10.30;36.93
67377;BME280;54261;46.086;6.588;2023-04-24T20:53:56;92231.13;;;11.02;37.08
67377;BME280;54261;46.086;6.588;2023-04-24T20:58:59;92226.47;;;11.32;35.16
67377;BME280;54261;46.086;6.588;2023-04-24T21:04:01;92228.69;;;12.07;35.33
67377;BME280;54261;46.086;6.588;2023-04-24T21:09:04;92210.53;;;11.49;35.44
67377;BME280;54261;46.086;6.588;2023-04-24T21:14:06;92219.13;;;11.97;33.87
67377;BME280;54261;46.086;6.588;2023-04-24T21:19:08;92214.72;;;12.38;33.31
67377;BME280;54261;46.086;6.588;2023-04-24T21:24:10;92204.88;;;12.30;32.99
67377;BME280;54261;46.086;6.588;2023-04-24T21:29:12;92184.69;;;12.49;33.07
67377;BME280;54261;46.086;6.588;2023-04-24T21:34:14;92183.59;;;10.72;36.86
67377;BME280;54261;46.086;6.588;2023-04-24T21:39:16;92181.63;;;12.00;35.68
67377;BME280;54261;46.086;6.588;2023-04-24T21:44:18;92162.94;;;11.70;35.30
67377;BME280;54261;46.086;6.588;2023-04-24T21:49:20;92174.13;;;11.72;35.44
67377;BME280;54261;46.086;6.588;2023-04-24T21:54:22;92183.19;;;10.23;38.31
67377;BME280;54261;46.086;6.588;2023-04-24T21:59:24;92151.66;;;11.43;36.91
67377;BME280;54261;46.086;6.588;2023-04-24T22:04:26;92183.94;;;9.93;38.46
67377;BME280;54261;46.086;6.588;2023-04-24T22:09:28;92172.91;;;10.64;37.53
67377;BME280;54261;46.086;6.588;2023-04-24T22:14:30;92143.34;;;11.15;36.28
67377;BME280;54261;46.086;6.588;2023-04-24T22:19:32;92170.63;;;10.96;37.19
67377;BME280;54261;46.086;6.588;2023-04-24T22:24:34;92157.06;;;11.22;36.03
67377;BME280;54261;46.086;6.588;2023-04-24T22:29:37;92153.41;;;11.39;35.75
67377;BME280;54261;46.086;6.588;2023-04-24T22:34:41;92144.59;;;10.75;36.54
67377;BME280;54261;46.086;6.588;2023-04-24T22:39:43;92154.13;;;9.38;37.87
67377;BME280;54261;46.086;6.588;2023-04-24T22:44:44;92147.94;;;10.72;37.07
67377;BME280;54261;46.086;6.588;2023-04-24T22:49:46;92148.22;;;11.00;36.55
67377;BME280;54261;46.086;6.588;2023-04-24T22:54:48;92142.69;;;11.18;35.77
67377;BME280;54261;46.086;6.588;2023-04-24T22:59:52;92154.16;;;10.33;36.71
67377;BME280;54261;46.086;6.588;2023-04-24T23:04:54;92147.06;;;10.59;36.57
67377;BME280;54261;46.086;6.588;2023-04-24T23:09:57;92147.22;;;10.24;37.89
67377;BME280;54261;46.086;6.588;2023-04-24T23:14:59;92137.44;;;10.58;37.21
67377;BME280;54261;46.086;6.588;2023-04-24T23:20:01;92137.66;;;10.14;38.72
67377;BME280;54261;46.086;6.588;2023-04-24T23:25:03;92127.53;;;11.01;37.52
67377;BME280;54261;46.086;6.588;2023-04-24T23:30:05;92113.16;;;10.24;37.97
67377;BME280;54261;46.086;6.588;2023-04-24T23:35:08;92113.69;;;10.17;37.99
67377;BME280;54261;46.086;6.588;2023-04-24T23:40:11;92123.44;;;10.95;36.89
67377;BME280;54261;46.086;6.588;2023-04-24T23:45:12;92108.97;;;10.87;36.35
67377;BME280;54261;46.086;6.588;2023-04-24T23:50:14;92119.31;;;10.55;37.14
67377;BME280;54261;46.086;6.588;2023-04-24T23:55:16;92114.88;;;11.01;35.93
